Time;durP1;ratioP1;P1;durP2;ratioP2;P2;SDS_P1;SDS_P2;PMS_P1;PMS_P2;Temp;Humidity;BMP_temperature;BMP_pressure;BME280_temperature;BME280_humidity;BME280_pressure;Samples;Min_cycle;Max_cycle;Signal;HPM_P1;HPM_P2
2023/08/23 00:00:10;;;;;;;5.00;2.08;;;;;;;17.21;100.00;102034.13;5131465;27;19977;-37
2023/08/23 00:02:36;;;;;;;5.57;2.38;;;;;;;17.19;100.00;102039.84;5131477;27;20027;-37
2023/08/23 00:05:01;;;;;;;;;;;;;;;17.34;100.00;102022.88;5130921;28;20451;-37
2023/08/23 00:07:27;;;;;;;4.03;2.30;;;;;;;17.10;100.00;102033.13;5131072;28;19911;-37
2023/08/23 00:09:52;;;;;;;;;;;;;;;17.24;100.00;102033.63;5123466;27;20268;-37
2023/08/23 00:12:17;;;;;;;4.18;2.20;;;;;;;17.08;100.00;102032.53;5117062;28;20006;-37
2023/08/23 00:14:43;;;;;;;;;;;;;;;17.24;100.00;102033.63;5117349;28;20448;-37
2023/08/23 00:17:08;;;;;;;3.93;2.13;;;;;;;16.96;100.00;102023.56;5117170;28;19950;-37
2023/08/23 00:19:33;;;;;;;;;;;;;;;17.18;100.00;102027.25;5117347;28;20261;-37
2023/08/23 00:21:59;;;;;;;3.75;1.95;;;;;;;16.96;100.00;102026.28;5116547;28;20270;-37
2023/08/23 00:24:24;;;;;;;;;;;;;;;17.12;100.00;102024.66;5116990;28;20027;-37
2023/08/23 00:26:49;;;;;;;3.83;2.00;;;;;;;16.90;100.00;102019.91;5116764;28;19903;-37
2023/08/23 00:29:14;;;;;;;;;;;;;;;17.08;100.00;102023.50;5117327;28;20323;-37
2023/08/23 00:31:40;;;;;;;2.90;2.03;;;;;;;16.96;100.00;102015.34;5117220;28;19910;-37
2023/08/23 00:34:05;;;;;;;;;;;;;;;17.07;100.00;102011.72;5116985;28;20527;-37
2023/08/23 00:36:30;;;;;;;3.10;1.87;;;;;;;16.84;100.00;102009.13;5117138;28;19911;-37
2023/08/23 00:38:56;;;;;;;;;;;;;;;17.02;100.00;102008.91;5117111;28;20274;-37
2023/08/23 00:41:24;;;;;;;4.77;2.20;;;;;;;16.74;100.00;101996.13;5116073;28;19908;-37
2023/08/23 00:43:50;;;;;;;5.45;2.30;;;;;;;16.73;100.00;101989.78;5116656;28;20264;-37
2023/08/23 00:46:16;;;;;;;;;;;;;;;16.89;100.00;101999.13;5117746;28;20027;-37
2023/08/23 00:48:43;;;;;;;3.65;1.85;;;;;;;16.63;100.00;101994.22;5116387;28;19908;-37
2023/08/23 00:51:09;;;;;;;2.83;1.65;;;;;;;16.68;100.00;102002.50;5116279;28;20020;-37
2023/08/23 00:53:36;;;;;;;3.47;2.00;;;;;;;16.61;100.00;101996.38;5115022;28;20413;-37
2023/08/23 00:56:02;;;;;;;3.35;1.85;;;;;;;16.55;100.00;101995.44;5116201;28;20023;-37
2023/08/23 00:58:28;;;;;;;3.13;1.83;;;;;;;16.61;100.00;101986.28;5116051;28;20452;-37
2023/08/23 01:00:54;;;;;;;3.60;1.88;;;;;;;16.53;100.00;101994.84;5116630;28;20020;-37
2023/08/23 01:03:20;;;;;;;4.05;2.00;;;;;;;16.51;100.00;101998.91;5116131;28;20027;-37
2023/08/23 01:06:03;;;;;;;;;;;;;;;16.66;100.00;102000.03;5116419;28;20031;-37
2023/08/23 01:08:50;;;;;;;2.45;1.83;;;;;;;16.49;100.00;102001.84;5115698;28;19968;-37
2023/08/23 01:11:24;;;;;;;2.15;1.48;;;;;;;16.48;100.00;102002.94;5116425;28;20344;-37
2023/08/23 01:14:03;;;;;;;4.68;1.73;;;;;;;16.33;100.00;101988.97;5115869;28;20016;-43
2023/08/23 01:16:31;;;;;;;2.88;1.70;;;;;;;16.34;100.00;102005.09;5115523;28;20031;-37
2023/08/23 01:20:00;;;;;;;5.05;1.80;;;;;;;16.44;100.00;102010.75;5115739;28;20041;-37
2023/08/23 01:22:53;;;;;;;2.95;2.03;;;;;;;16.33;100.00;102016.28;5115425;28;20027;-36
2023/08/23 01:25:18;;;;;;;3.70;1.75;;;;;;;16.21;100.00;101998.03;5100195;28;20464;-37
2023/08/23 01:27:44;;;;;;;;;;;;;;;16.45;100.00;102015.19;5116069;28;20030;-37
2023/08/23 01:30:11;;;;;;;4.43;2.30;;;;;;;16.25;100.00;102001.13;5115810;28;20351;-37
2023/08/23 01:32:48;;;;;;;2.38;1.80;;;;;;;16.16;100.00;101997.91;5115803;28;20023;-37
2023/08/23 01:35:17;;;;;;;6.85;2.70;;;;;;;16.07;100.00;101988.44;5115769;28;20031;-37
2023/08/23 01:37:45;;;;;;;2.47;1.98;;;;;;;16.19;100.00;102005.59;5115327;28;20051;-37
2023/08/23 01:40:12;;;;;;;3.70;2.30;;;;;;;16.11;100.00;102003.28;5115286;28;20019;-37
2023/08/23 01:42:39;;;;;;;3.90;1.85;;;;;;;16.09;100.00;102005.38;5115567;28;20110;-37
2023/08/23 01:45:06;;;;;;;2.47;1.80;;;;;;;16.11;100.00;102005.16;5115427;28;20161;-36
2023/08/23 01:47:31;;;;;;;3.05;1.80;;;;;;;16.02;100.00;101990.25;5115788;28;20125;-37
2023/08/23 01:49:56;;;;;;;;;;;;;;;16.24;100.00;101991.25;5115263;28;20065;-37
2023/08/23 01:52:21;;;;;;;2.50;1.75;;;;;;;16.03;100.00;101984.53;5115642;28;19914;-37
2023/08/23 01:54:47;;;;;;;;;;;;;;;16.26;100.00;101996.47;5115519;28;20030;-37
2023/08/23 01:57:12;;;;;;;4.90;1.87;;;;;;;16.04;100.00;101986.19;5115470;28;19904;-37
2023/08/23 01:59:37;;;;;;;;;;;;;;;16.23;100.00;101995.06;5115988;28;20285;-37
2023/08/23 02:02:03;;;;;;;2.50;1.70;;;;;;;16.00;100.00;101990.44;5114927;28;20370;-37
2023/08/23 02:04:29;;;;;;;;;;;;;;;16.21;100.00;101991.75;5115319;28;20830;-37
2023/08/23 02:06:54;;;;;;;3.40;1.53;;;;;;;15.95;100.00;101971.25;5114822;28;19912;-37
2023/08/23 02:09:19;;;;;;;;;;;;;;;16.20;100.00;101995.53;5114936;28;20308;-37
2023/08/23 02:11:44;;;;;;;1.87;1.67;;;;;;;15.95;100.00;101982.16;5114472;28;19965;-36
2023/08/23 02:14:10;;;;;;;;;;;;;;;16.14;100.00;101991.84;5115095;28;20257;-37
2023/08/23 02:16:35;;;;;;;3.60;1.60;;;;;;;15.92;100.00;101990.84;5114726;28;19919;-37
2023/08/23 02:19:00;;;;;;;;;;;;;;;16.10;100.00;101990.66;5114989;28;20799;-36
2023/08/23 02:21:25;;;;;;;2.87;1.90;;;;;;;15.86;100.00;101995.34;5114858;28;19907;-37
2023/08/23 02:23:51;;;;;;;;;;;;;;;16.02;100.00;101987.50;5114915;28;20265;-37
2023/08/23 02:26:16;;;;;;;2.55;1.90;;;;;;;15.83;100.00;101984.09;5114185;28;19938;-37
2023/08/23 02:28:42;;;;;;;;;;;;;;;15.99;100.00;101991.53;5115665;28;20027;-37
2023/08/23 02:31:07;;;;;;;2.03;1.70;;;;;;;15.81;100.00;101981.59;5114991;28;20351;-37
2023/08/23 02:33:32;;;;;;;;;;;;;;;15.95;100.00;101987.63;5114565;28;20027;-37
2023/08/23 02:35:58;;;;;;;3.03;1.73;;;;;;;15.77;100.00;101993.22;5114614;28;19908;-37
2023/08/23 02:38:23;;;;;;;;;;;;;;;15.92;100.00;101988.13;5114748;28;20817;-36
2023/08/23 02:40:48;;;;;;;2.30;1.70;;;;;;;15.79;100.00;101985.63;5113998;28;19908;-37
2023/08/23 02:43:13;;;;;;;;;;;;;;;15.92;100.00;101990.84;5114777;28;20047;-37
2023/08/23 02:45:40;;;;;;;3.23;2.07;;;;;;;15.66;100.00;101973.03;5114474;28;19914;-37
2023/08/23 02:48:08;;;;;;;3.33;2.00;;;;;;;15.65;100.00;101983.13;5114475;28;20313;-36
2023/08/23 02:50:33;;;;;;;4.43;2.03;;;;;;;15.66;100.00;101979.34;5114148;28;20023;-37
2023/08/23 02:52:58;;;;;;;;;;;;;;;15.84;100.00;101983.00;5114945;28;20364;-36
2023/08/23 02:55:24;;;;;;;3.60;1.93;;;;;;;15.57;100.00;101960.84;5114620;28;19990;-37
2023/08/23 02:57:49;;;;;;;2.72;1.63;;;;;;;15.56;100.00;101962.69;5113877;28;20376;-36
2023/08/23 03:00:14;;;;;;;;;;;;;;;15.79;100.00;101975.53;5114165;28;20028;-37
2023/08/23 03:02:40;;;;;;;3.55;2.00;;;;;;;15.63;100.00;101968.91;5114574;28;19914;-37
2023/08/23 03:05:05;;;;;;;;;;;;;;;15.79;100.00;101963.81;5114412;28;20440;-37
2023/08/23 03:07:30;;;;;;;2.45;1.60;;;;;;;15.55;100.00;101955.59;5114612;28;19914;-36
2023/08/23 03:09:56;;;;;;;;;;;;;;;15.75;100.00;101968.06;5114166;28;20019;-37
2023/08/23 03:12:21;;;;;;;2.63;1.60;;;;;;;15.39;100.00;101939.97;5113969;28;19912;-37
2023/08/23 03:14:46;;;;;;;3.33;1.90;;;;;;;15.48;100.00;101973.16;5114705;28;20266;-37
2023/08/23 03:17:13;;;;;;;;;;;;;;;15.62;100.00;101967.22;5114477;28;20107;-36
2023/08/23 03:19:38;;;;;;;3.70;2.15;;;;;;;15.44;100.00;101959.16;5113776;28;19953;-36
2023/08/23 03:22:03;;;;;;;4.80;2.08;;;;;;;15.41;100.00;101959.63;5114771;28;20106;-37
2023/08/23 03:24:29;;;;;;;3.33;2.15;;;;;;;15.42;100.00;101967.59;5114406;28;20504;-36
2023/08/23 03:26:54;;;;;;;;;;;;;;;15.58;100.00;101966.03;5115179;28;20027;-37
2023/08/23 03:29:19;;;;;;;3.17;1.93;;;;;;;15.42;100.00;101956.69;5114089;28;20426;-37
2023/08/23 03:31:45;;;;;;;4.00;2.60;;;;;;;15.41;100.00;101965.06;5113871;28;20717;-37
2023/08/23 03:34:10;;;;;;;;;;;;;;;15.57;100.00;101964.38;5114432;28;20027;-37
2023/08/23 03:36:35;;;;;;;3.00;1.90;;;;;;;15.37;100.00;101955.69;5113806;28;19908;-36
2023/08/23 03:39:00;;;;;;;3.55;2.78;;;;;;;15.37;100.00;101966.59;5113922;28;20304;-37
2023/08/23 03:41:26;;;;;;;;;;;;;;;15.53;100.00;101970.53;5114429;28;20366;-37
2023/08/23 03:43:51;;;;;;;4.25;2.60;;;;;;;15.35;100.00;101964.13;5113679;28;20406;-37
2023/08/23 03:46:17;;;;;;;;;;;;;;;15.54;100.00;101972.19;5118510;28;20082;-37
2023/08/23 03:48:42;;;;;;;3.15;2.28;;;;;;;15.40;100.00;101972.41;5117205;28;19969;-37
2023/08/23 03:51:08;;;;;;;2.72;2.30;;;;;;;15.36;100.00;101973.13;5117756;28;20027;-37
2023/08/23 03:53:33;;;;;;;;;;;;;;;15.51;100.00;101978.13;5118110;28;20458;-37
2023/08/23 03:55:58;;;;;;;3.42;3.05;;;;;;;15.28;100.00;101959.88;5117052;28;20290;-37
2023/08/23 03:58:24;;;;;;;;;;;;;;;15.49;100.00;101963.91;5118218;28;20047;-37
2023/08/23 04:00:53;;;;;;;3.97;3.05;;;;;;;15.36;100.00;101973.94;5116911;28;19915;-37
2023/08/23 04:03:18;;;;;;;2.78;2.40;;;;;;;15.35;100.00;101977.75;5117195;28;20452;-37
2023/08/23 04:05:44;;;;;;;2.47;2.28;;;;;;;15.33;100.00;101973.63;5117198;28;20020;-37
2023/08/23 04:08:10;;;;;;;;;;;;;;;15.49;100.00;101978.34;5117885;28;20115;-37
2023/08/23 04:10:36;;;;;;;2.60;2.20;;;;;;;15.30;100.00;101966.72;5117038;28;19950;-36
2023/08/23 04:13:01;;;;;;;;;;;;;;;15.53;100.00;101985.00;5117460;28;20067;-36
2023/08/23 04:15:27;;;;;;;3.57;2.60;;;;;;;15.36;100.00;101978.56;5116649;28;19911;-37
2023/08/23 04:17:52;;;;;;;4.07;2.63;;;;;;;15.32;100.00;101993.72;5117183;28;20306;-37
2023/08/23 04:20:17;;;;;;;;;;;;;;;15.49;100.00;101983.81;5117379;28;20023;-37
2023/08/23 04:22:43;;;;;;;4.95;2.60;;;;;;;15.35;100.00;101987.81;5116867;28;20010;-37
2023/08/23 04:25:08;;;;;;;;;;;;;;;15.46;100.00;101984.28;5116916;28;20020;-37
2023/08/23 04:27:34;;;;;;;7.38;2.50;;;;;;;15.26;100.00;101981.88;5116479;28;19904;-37
2023/08/23 04:29:59;;;;;;;6.57;2.72;;;;;;;15.29;100.00;101994.22;5116405;28;20023;-36
2023/08/23 04:32:24;;;;;;;;;;;;;;;15.40;100.00;101979.78;5117408;28;20045;-36
2023/08/23 04:34:50;;;;;;;3.20;2.33;;;;;;;15.26;100.00;101987.31;5116818;28;19910;-37
2023/08/23 04:37:15;;;;;;;3.38;2.90;;;;;;;15.19;100.00;101981.16;5116261;28;20775;-36
2023/08/23 04:39:40;;;;;;;;;;;;;;;15.33;100.00;101982.63;5116869;28;20031;-36
2023/08/23 04:42:06;;;;;;;5.30;3.00;;;;;;;15.10;100.00;101990.75;5117080;28;20364;-37
2023/08/23 04:44:31;;;;;;;;;;;;;;;15.25;100.00;101982.13;5117181;28;20061;-37
2023/08/23 04:46:58;;;;;;;3.43;2.83;;;;;;;15.08;100.00;101976.50;5116398;28;19914;-36
2023/08/23 04:49:23;;;;;;;3.45;2.90;;;;;;;15.12;100.00;101977.72;5116124;28;20318;-37
2023/08/23 04:51:49;;;;;;;4.28;2.50;;;;;;;15.16;100.00;101977.00;5116638;28;20019;-37
2023/08/23 04:54:14;;;;;;;;;;;;;;;15.29;100.00;101972.41;5116717;28;20117;-36
2023/08/23 04:56:39;;;;;;;3.33;2.43;;;;;;;15.12;100.00;101981.25;5115873;28;19908;-36
2023/08/23 04:59:05;;;;;;;4.28;2.72;;;;;;;15.12;100.00;101978.53;5117083;28;20297;-37
2023/08/23 05:01:30;;;;;;;;;;;;;;;15.28;100.00;101981.66;5116572;28;20057;-36
2023/08/23 05:03:55;;;;;;;3.33;2.80;;;;;;;15.12;100.00;101974.97;5115816;28;19907;-37
2023/08/23 05:06:21;;;;;;;5.07;3.05;;;;;;;15.11;100.00;101973.31;5116449;28;20254;-36
2023/08/23 05:08:46;;;;;;;;;;;;;;;15.30;100.00;101982.25;5116719;28;20108;-37
2023/08/23 05:11:11;;;;;;;3.90;2.92;;;;;;;15.23;100.00;101974.19;5116019;28;19914;-36
2023/08/23 05:13:37;;;;;;;;;;;;;;;15.35;100.00;101976.94;5116006;28;20110;-36
2023/08/23 05:16:03;;;;;;;4.07;3.08;;;;;;;15.31;100.00;101975.72;5116435;28;19915;-36
2023/08/23 05:18:28;;;;;;;;;;;;;;;15.44;100.00;101975.50;5116475;28;20015;-36
2023/08/23 05:20:55;;;;;;;4.53;3.50;;;;;;;15.35;100.00;101966.84;5115470;27;19996;-36
2023/08/23 05:23:21;;;;;;;5.28;3.70;;;;;;;15.44;100.00;101981.78;5115388;28;20038;-37
2023/08/23 05:25:46;;;;;;;;;;;;;;;15.61;100.00;101981.91;5115770;28;20053;-37
2023/08/23 05:28:12;;;;;;;4.97;4.10;;;;;;;15.53;100.00;101968.66;5115867;28;19994;-37
2023/08/23 05:30:38;;;;;;;;;;;;;;;15.72;100.00;101971.28;5115944;28;20716;-37
2023/08/23 05:33:03;;;;;;;5.88;4.72;;;;;;;15.70;100.00;101975.06;5115215;28;19998;-37
2023/08/23 05:35:28;;;;;;;;;;;;;;;15.85;100.00;101976.47;5116414;28;20024;-37
2023/08/23 05:37:54;;;;;;;5.75;4.20;;;;;;;15.76;100.00;101972.44;5115118;28;20002;-37
2023/08/23 05:40:19;;;;;;;;;;;;;;;15.92;100.00;101977.19;5116059;28;20016;-36
2023/08/23 05:42:45;;;;;;;7.68;4.72;;;;;;;15.86;100.00;101972.69;5115654;28;19908;-36
2023/08/23 05:45:10;;;;;;;;;;;;;;;16.00;100.00;101974.09;5116274;27;20402;-36
2023/08/23 05:47:35;;;;;;;6.90;4.47;;;;;;;15.90;100.00;101971.13;5115196;28;19994;-36
2023/08/23 05:50:00;;;;;;;;;;;;;;;16.05;100.00;101976.91;5115514;28;20261;-36
2023/08/23 05:52:26;;;;;;;5.17;4.67;;;;;;;16.08;100.00;101979.19;5115141;28;19903;-36
2023/08/23 05:54:51;;;;;;;;;;;;;;;16.29;100.00;101987.78;5115441;28;20254;-36
2023/08/23 05:57:16;;;;;;;5.77;4.87;;;;;;;16.22;100.00;101983.31;5115014;28;19929;-36
2023/08/23 05:59:41;;;;;;;;;;;;;;;16.42;100.00;101993.81;5115808;28;20293;-36
2023/08/23 06:02:07;;;;;;;7.45;5.22;;;;;;;16.26;100.00;101989.13;5115194;28;19919;-37
2023/08/23 06:04:33;;;;;;;;;;;;;;;16.51;100.00;101996.16;5115289;28;20440;-36
2023/08/23 06:06:58;;;;;;;7.28;4.38;;;;;;;16.39;100.00;101994.28;5114365;28;19907;-36
2023/08/23 06:09:24;;;;;;;;;;;;;;;16.55;100.00;101991.88;5115179;28;20076;-36
2023/08/23 06:11:49;;;;;;;5.75;4.80;;;;;;;16.42;100.00;101987.53;5114770;28;19950;-36
2023/08/23 06:14:21;;;;;;;;;;;;;;;16.63;100.00;101995.03;5115093;28;20108;-37
2023/08/23 06:16:46;;;;;;;5.07;4.57;;;;;;;16.58;100.00;101992.22;5115010;28;19912;-37
2023/08/23 06:19:11;;;;;;;;;;;;;;;16.81;100.00;101987.75;5115015;28;20367;-36
2023/08/23 06:21:37;;;;;;;4.95;4.10;;;;;;;16.84;100.00;101990.03;5114616;28;19908;-37
2023/08/23 06:24:03;;;;;;;;;;;;;;;17.01;100.00;101993.59;5115023;28;20024;-37
2023/08/23 06:26:29;;;;;;;7.35;4.97;;;;;;;16.97;100.00;101985.06;5115382;28;19908;-36
2023/08/23 06:28:54;;;;;;;;;;;;;;;17.18;100.00;101994.47;5114891;28;20023;-37
2023/08/23 06:31:20;;;;;;;5.45;4.22;;;;;;;17.23;100.00;101999.19;5114460;28;20232;-37
2023/08/23 06:33:45;;;;;;;;;;;;;;;17.40;100.00;102000.00;5115059;28;20028;-37
2023/08/23 06:36:11;;;;;;;6.78;4.40;;;;;;;17.38;100.00;101993.13;5115240;28;20010;-37
2023/08/23 06:38:36;;;;;;;;;;;;;;;17.58;100.00;102003.56;5115156;28;20020;-37
2023/08/23 06:41:01;;;;;;;5.13;4.33;;;;;;;17.60;100.00;101999.50;5114563;28;19908;-37
2023/08/23 06:43:26;;;;;;;;;;;;;;;17.75;100.00;102002.50;5115252;28;20270;-37
2023/08/23 06:45:52;;;;;;;5.70;4.43;;;;;;;17.65;100.00;101996.84;5114235;28;19907;-37
2023/08/23 06:48:17;;;;;;;;;;;;;;;17.82;100.00;102002.34;5114719;28;20253;-37
2023/08/23 06:50:42;;;;;;;7.18;4.80;;;;;;;17.77;100.00;101998.69;5114741;28;19907;-37
2023/08/23 06:53:08;;;;;;;7.82;4.90;;;;;;;17.86;100.00;101997.16;5114188;28;20024;-37
2023/08/23 06:55:39;;;;;;;6.18;4.85;;;;;;;17.85;100.00;102001.81;5114078;28;20012;-37
2023/08/23 06:58:04;;;;;;;7.38;4.78;;;;;;;17.98;100.00;102003.38;5114202;28;20050;-37
2023/08/23 07:00:30;;;;;;;;;;;;;;;18.13;100.00;102002.75;5114832;28;20359;-37
2023/08/23 07:02:56;;;;;;;6.53;4.38;;;;;;;18.06;100.00;102000.22;5113859;28;19912;-37
2023/08/23 07:05:21;;;;;;;;;;;;;;;18.23;100.00;102019.31;5114723;28;20033;-37
2023/08/23 07:07:47;;;;;;;6.10;4.53;;;;;;;18.22;100.00;102018.47;5114347;28;20354;-37
2023/08/23 07:10:12;;;;;;;;;;;;;;;18.37;100.00;102011.56;5114143;28;20023;-37
2023/08/23 07:12:37;;;;;;;6.28;4.38;;;;;;;18.37;100.00;102011.56;5114246;28;19907;-36
2023/08/23 07:15:03;;;;;;;;;;;;;;;18.52;100.00;102014.47;5114405;28;20088;-37
2023/08/23 07:17:28;;;;;;;5.93;3.83;;;;;;;18.53;100.00;102016.13;5113585;28;20237;-37
2023/08/23 07:19:55;;;;;;;5.15;4.00;;;;;;;18.58;100.00;102010.69;5115625;28;20024;-37
2023/08/23 07:22:20;;;;;;;7.15;4.22;;;;;;;18.61;100.00;102010.19;5118036;28;20073;-37
2023/08/23 07:24:46;;;;;;;;;;;;;;;18.73;100.00;102013.63;5118434;27;20020;-37
2023/08/23 07:27:11;;;;;;;6.23;3.87;;;;;;;18.76;100.00;102018.63;5117982;28;19939;-37
2023/08/23 07:29:36;;;;;;;;;;;;;;;18.88;100.00;102017.63;5118320;28;20293;-37
2023/08/23 07:32:04;;;;;;;4.25;3.50;;;;;;;18.90;100.00;102024.53;5117578;28;19907;-37
2023/08/23 07:34:29;;;;;;;6.78;4.15;;;;;;;19.02;100.00;102027.09;5117767;28;20062;-37
2023/08/23 07:36:55;;;;;;;;;;;;;;;19.09;100.00;102027.72;5117276;28;20027;-37
2023/08/23 07:39:20;;;;;;;4.60;3.42;;;;;;;19.00;100.00;102021.88;5116636;28;19914;-37
2023/08/23 07:41:45;;;;;;;6.68;3.83;;;;;;;19.17;100.00;102035.47;5117589;28;20455;-37
2023/08/23 07:44:11;;;;;;;5.95;3.45;;;;;;;19.21;100.00;102033.88;5117664;28;20020;-37
2023/08/23 07:46:36;;;;;;;4.75;3.88;;;;;;;19.28;100.00;102031.75;5117587;28;20096;-37
2023/08/23 07:49:01;;;;;;;4.43;3.55;;;;;;;19.36;100.00;102026.88;5117546;28;20020;-37
2023/08/23 07:51:27;;;;;;;;;;;;;;;19.48;100.00;102030.28;5118183;28;20149;-37
2023/08/23 07:53:53;;;;;;;5.07;2.93;;;;;;;19.52;100.00;102029.50;5117453;28;19947;-37
2023/08/23 07:56:18;;;;;;;5.03;3.38;;;;;;;19.50;100.00;102028.91;5117926;28;20310;-37
2023/08/23 07:58:43;;;;;;;;;;;;;;;19.70;100.00;102027.44;5117917;28;20043;-37
2023/08/23 08:01:09;;;;;;;4.80;3.58;;;;;;;19.73;100.00;102030.50;5117364;28;19907;-37
2023/08/23 08:03:34;;;;;;;4.50;2.88;;;;;;;19.76;100.00;102023.63;5117197;28;20063;-37
2023/08/23 08:06:00;;;;;;;5.07;3.25;;;;;;;19.84;100.00;102030.56;5117519;28;20448;-37
2023/08/23 08:08:25;;;;;;;5.25;3.13;;;;;;;19.95;100.00;102037.75;5117160;28;20102;-37
2023/08/23 08:10:51;;;;;;;3.90;2.72;;;;;;;20.01;100.00;102028.47;5117152;28;20024;-37
2023/08/23 08:13:16;;;;;;;4.30;2.70;;;;;;;20.12;100.00;102041.16;5117366;28;20424;-37
2023/08/23 08:15:42;;;;;;;4.15;2.88;;;;;;;20.16;100.00;102028.56;5116962;28;20344;-37
2023/08/23 08:18:07;;;;;;;4.95;3.50;;;;;;;20.22;100.00;102023.91;5117167;28;20020;-37
2023/08/23 08:20:32;;;;;;;3.83;2.80;;;;;;;20.25;100.00;102029.72;5116938;28;20084;-37
2023/08/23 08:22:58;;;;;;;7.88;3.90;;;;;;;20.28;100.00;102022.84;5117391;28;20073;-37
2023/08/23 08:25:24;;;;;;;5.45;3.90;;;;;;;20.42;100.00;102028.69;5116540;28;20024;-37
2023/08/23 08:27:52;;;;;;;5.55;4.10;;;;;;;20.46;100.00;102030.63;5117653;28;20031;-37
2023/08/23 08:30:18;;;;;;;4.80;3.70;;;;;;;20.53;100.00;102035.88;5116189;28;20024;-37
2023/08/23 08:32:43;;;;;;;5.07;3.65;;;;;;;20.69;100.00;102034.88;5116681;28;20049;-37
2023/08/23 08:35:09;;;;;;;5.65;3.50;;;;;;;20.68;100.00;102027.69;5116679;28;20047;-37
2023/08/23 08:37:34;;;;;;;5.22;3.50;;;;;;;20.83;100.00;102035.97;5117145;28;20030;-37
2023/08/23 08:40:00;;;;;;;3.53;3.00;;;;;;;20.89;99.28;102030.53;5116520;28;20019;-37
2023/08/23 08:42:25;;;;;;;4.00;3.20;;;;;;;21.01;98.75;102031.91;5116798;28;20103;-37
2023/08/23 08:44:51;;;;;;;6.30;3.25;;;;;;;21.02;97.90;102022.56;5116435;28;20073;-37
2023/08/23 08:47:17;;;;;;;4.80;3.53;;;;;;;21.03;98.60;102010.47;5116770;27;20024;-37
2023/08/23 08:49:42;;;;;;;4.57;2.33;;;;;;;21.20;94.85;102017.63;5116371;28;20035;-37
2023/08/23 08:52:12;;;;;;;4.13;2.75;;;;;;;21.18;93.64;102015.16;5116360;28;20110;-37
2023/08/23 08:54:41;;;;;;;3.10;2.42;;;;;;;21.32;93.69;102019.03;5116014;28;20058;-37
2023/08/23 08:57:08;;;;;;;4.22;2.40;;;;;;;21.43;94.34;102027.31;5116223;28;20019;-37
2023/08/23 08:59:35;;;;;;;3.50;2.33;;;;;;;21.49;94.37;102023.44;5116653;28;20397;-37
2023/08/23 09:02:03;;;;;;;4.65;2.80;;;;;;;21.57;92.89;102011.91;5116472;28;20075;-37
2023/08/23 09:04:28;;;;;;;4.00;2.65;;;;;;;21.73;92.76;102030.03;5116877;28;20027;-37
2023/08/23 09:06:55;;;;;;;4.88;2.67;;;;;;;21.82;92.82;102025.63;5116654;28;20363;-37
2023/08/23 09:09:20;;;;;;;5.20;2.75;;;;;;;21.97;91.39;102019.25;5116312;28;20409;-37
2023/08/23 09:11:46;;;;;;;3.75;2.30;;;;;;;22.00;87.62;102026.94;5116245;28;20023;-37
2023/08/23 09:14:20;;;;;;;6.82;2.58;;;;;;;21.98;90.78;102011.81;5115890;28;20024;-37
2023/08/23 09:16:47;;;;;;;3.30;2.40;;;;;;;22.16;89.95;102027.78;5115871;28;20079;-37
2023/08/23 09:19:13;;;;;;;3.35;2.20;;;;;;;22.35;89.94;102025.19;5115669;28;20015;-37
2023/08/23 09:21:49;;;;;;;4.60;2.80;;;;;;;22.35;90.70;102016.94;5116033;28;20030;-37
2023/08/23 09:24:15;;;;;;;6.43;3.10;;;;;;;22.42;91.28;102003.69;5115722;28;20019;-37
2023/08/23 09:26:40;;;;;;;3.08;2.58;;;;;;;22.56;89.95;102015.75;5116011;28;20490;-37
2023/08/23 09:29:06;;;;;;;3.83;2.60;;;;;;;22.71;90.56;102025.03;5115584;28;20507;-37
2023/08/23 09:31:31;;;;;;;7.05;3.08;;;;;;;22.76;90.16;102022.25;5115910;28;20325;-37
2023/08/23 09:33:58;;;;;;;6.15;2.65;;;;;;;22.86;89.63;102025.78;5115516;28;20022;-37
2023/08/23 09:36:29;;;;;;;5.47;2.85;;;;;;;22.83;90.14;102033.78;5116325;28;20024;-37
2023/08/23 09:38:59;;;;;;;5.53;3.03;;;;;;;22.83;90.16;102020.00;5115878;28;20030;-37
2023/08/23 09:41:25;;;;;;;3.42;2.22;;;;;;;23.10;88.06;102025.94;5115262;27;20149;-37
2023/08/23 09:43:54;;;;;;;3.92;2.10;;;;;;;23.07;89.05;102011.88;5114679;28;20016;-37
2023/08/23 09:46:25;;;;;;;7.07;2.70;;;;;;;23.25;86.65;102019.47;5115541;27;20023;-37
2023/08/23 09:48:53;;;;;;;3.17;2.22;;;;;;;23.30;84.88;102013.91;5115186;28;20460;-38
2023/08/23 09:51:22;;;;;;;3.33;2.35;;;;;;;23.28;84.25;102004.28;5115429;28;20102;-38
2023/08/23 09:53:52;;;;;;;5.05;2.30;;;;;;;23.46;84.27;102016.53;5115351;28;20035;-37
2023/08/23 09:56:17;;;;;;;5.00;2.60;;;;;;;23.49;84.89;102010.44;5115687;28;20019;-37
2023/08/23 09:58:43;;;;;;;3.53;2.42;;;;;;;23.55;83.05;102012.84;5115985;28;20048;-37
2023/08/23 10:01:10;;;;;;;4.35;2.13;;;;;;;23.71;83.36;102016.31;5115869;28;20031;-37
2023/08/23 10:03:36;;;;;;;4.38;2.47;;;;;;;23.84;84.35;102020.34;5115217;28;20387;-37
2023/08/23 10:06:02;;;;;;;5.78;2.55;;;;;;;23.89;83.79;102010.06;5115443;28;20409;-37
2023/08/23 10:08:27;;;;;;;3.83;2.15;;;;;;;24.04;83.42;102017.34;5115477;28;20023;-37
2023/08/23 10:10:54;;;;;;;2.63;1.73;;;;;;;24.15;82.10;102024.41;5114851;28;20019;-37
2023/08/23 10:13:21;;;;;;;5.05;2.30;;;;;;;24.27;79.51;102026.78;5115261;28;20028;-37
2023/08/23 10:15:50;;;;;;;3.95;2.45;;;;;;;24.29;78.49;102016.22;5114979;28;20367;-37
2023/08/23 10:18:16;;;;;;;3.78;2.05;;;;;;;24.47;77.37;102020.19;5114596;28;20085;-37
2023/08/23 10:20:41;;;;;;;4.35;2.10;;;;;;;24.64;81.02;102011.38;5114598;28;20022;-37
2023/08/23 10:23:15;;;;;;;4.63;3.25;;;;;;;24.64;79.38;102011.38;5114628;28;20472;-37
2023/08/23 10:25:44;;;;;;;3.88;2.75;;;;;;;24.67;76.86;102014.38;5114544;28;20012;-37
2023/08/23 10:28:13;;;;;;;4.60;2.78;;;;;;;24.82;78.34;102007.81;5114623;28;20027;-37
2023/08/23 10:30:40;;;;;;;6.28;3.13;;;;;;;24.80;76.98;102007.28;5114447;28;20094;-37
2023/08/23 10:33:10;;;;;;;3.78;3.08;;;;;;;24.87;78.70;102015.22;5114773;28;20348;-37
2023/08/23 10:35:36;;;;;;;6.28;3.15;;;;;;;24.80;76.01;102003.72;5114391;28;20102;-37
2023/08/23 10:38:04;;;;;;;5.25;3.30;;;;;;;24.86;74.58;102005.28;5114012;27;20022;-38
2023/08/23 10:40:31;;;;;;;7.05;2.97;;;;;;;25.15;75.62;102002.34;5114314;28;20448;-37
2023/08/23 10:42:57;;;;;;;6.10;3.20;;;;;;;25.13;73.79;102001.81;5115203;28;20389;-37
2023/08/23 10:45:23;;;;;;;5.18;3.03;;;;;;;25.16;74.31;101998.47;5114199;28;20015;-37
2023/08/23 10:47:49;;;;;;;5.63;2.85;;;;;;;25.35;76.05;102009.50;5114329;28;20072;-37
2023/08/23 10:50:15;;;;;;;4.68;3.17;;;;;;;25.45;72.35;102008.50;5114248;28;20050;-37
2023/08/23 10:52:41;;;;;;;5.82;3.20;;;;;;;25.56;72.68;101999.69;5114487;28;20023;-37
2023/08/23 10:55:07;;;;;;;6.22;3.45;;;;;;;25.51;74.36;101996.22;5113997;28;20469;-37
2023/08/23 10:57:32;;;;;;;5.07;3.13;;;;;;;25.50;72.23;101989.03;5114588;28;20057;-37
2023/08/23 10:59:58;;;;;;;5.40;2.67;;;;;;;25.73;73.37;101988.06;5114768;28;20352;-37
2023/08/23 11:02:23;;;;;;;6.40;3.15;;;;;;;25.50;70.70;101989.03;5114159;28;20032;-37
2023/08/23 11:04:49;;;;;;;5.75;3.42;;;;;;;25.48;70.86;101983.00;5113996;28;20028;-37
2023/08/23 11:07:15;;;;;;;4.60;3.10;;;;;;;25.55;70.62;101978.69;5114376;28;20030;-37
2023/08/23 11:09:41;;;;;;;6.38;3.30;;;;;;;25.63;71.10;101977.16;5114024;28;20112;-37
2023/08/23 11:12:07;;;;;;;6.45;3.22;;;;;;;25.60;69.93;101967.50;5114536;28;20065;-37
2023/08/23 11:14:33;;;;;;;6.10;3.38;;;;;;;25.67;74.18;101965.16;5113628;28;20035;-38
2023/08/23 11:16:58;;;;;;;6.03;3.65;;;;;;;25.74;71.14;101958.41;5113646;28;20020;-42
2023/08/23 11:19:23;;;;;;;4.15;2.53;;;;;;;25.76;67.78;101959.75;5113854;28;20028;-37
2023/08/23 11:21:49;;;;;;;5.85;2.83;;;;;;;25.79;65.48;101958.31;5114437;28;20030;-37
2023/08/23 11:24:14;;;;;;;4.93;2.58;;;;;;;25.69;64.56;101951.81;5113593;28;20054;-37
2023/08/23 11:26:40;;;;;;;4.28;2.90;;;;;;;26.00;67.05;101948.47;5114115;28;20109;-37
2023/08/23 11:29:05;;;;;;;5.55;2.80;;;;;;;26.02;66.44;101937.91;5114105;28;20027;-37
2023/08/23 11:31:35;;;;;;;4.00;3.28;;;;;;;26.06;64.50;101941.72;5113809;28;20114;-37